Flight Track Log - Related Links

Times and Time Zones

All times are in EST time to prevent confusion due to time zone crossing. See the AAL963 flight status page for this flight to view local times or setup timezone preferences in your user account.

Time Position Orientation Groundspeed Altitude Reporting Facility
EST Latitude Longitude Course Direction KTS MPH feet Rate Location/Type
Sun 09:39:05 PM 32.9156 -97.0313 360° North 176 203 2,000  Level FlightAware ADS-B
Sun 09:41:58 PM 32.8564 -97.0299 179° South 176 203 2,600 474 Climbing FlightAware ADS-B
Sun 09:42:40 PM 32.8150 -97.0300 180° South 223 257 3,700 1,865 Climbing FlightAware ADS-B
Sun 09:43:12 PM 32.7810 -97.0170 162° South 254 292 4,900 1,913 Climbing FlightAware ADS-B
Sun 09:43:49 PM 32.7670 -96.9790 114° Southeast 288 331 5,900 2,467 Climbing FlightAware ADS-B
Sun 09:44:59 PM 32.7658 -96.8647 91° East 300 345 9,300 2,533 Climbing FlightAware ADS-B
Sun 09:45:19 PM 32.7660 -96.8243 90° East 310 357 9,700 878 Climbing FlightAware ADS-B
Sun 09:45:40 PM 32.7661 -96.7863 90° East 324 373 9,900 293 Climbing FlightAware ADS-B
Sun 09:46:00 PM 32.7659 -96.7467 90° East 350 403 9,900  Level FlightAware ADS-B
Sun 09:46:17 PM 32.7656 -96.7202 91° East 350 403 9,900  Level FlightAware ADS-B
Sun 09:46:36 PM 32.7652 -96.6863 91° East 344 396 9,900  Level FlightAware ADS-B
Sun 09:47:22 PM 32.7640 -96.5860 91° East 342 394 9,900 723 Level FlightAware ADS-B
Sun 09:47:59 PM 32.7636 -96.5470 91° East 340 391 10,900 1,979 Climbing FlightAware ADS-B
Sun 09:48:56 PM 32.7606 -96.4162 92° East 361 415 13,000 2,452 Climbing FlightAware ADS-B
Sun 09:49:32 PM 32.7590 -96.3360 91° East 367 422 14,700 2,545 Climbing FlightAware ADS-B
Sun 09:50:02 PM 32.7530 -96.2770 97° East 370 426 15,800 1,975 Climbing FlightAware ADS-B
Sun 09:50:51 PM 32.7391 -96.1903 101° East 378 435 17,300 1,761 Climbing FlightAware ADS-B
Sun 09:51:34 PM 32.7230 -96.0890 101° East 399 459 18,500 1,642 Climbing FlightAware ADS-B
Sun 09:52:26 PM 32.7050 -95.9740 101° East 413 475 19,900 1,724 Climbing FlightAware ADS-B
Sun 09:53:01 PM 32.6916 -95.8921 101° East 417 480 21,000 1,662 Climbing FlightAware ADS-B
Sun 09:53:31 PM 32.6806 -95.8226 101° East 426 490 21,700 1,333 Climbing FlightAware ADS-B
Sun 09:54:31 PM 32.6596 -95.6820 100° East 444 511 23,000 1,253 Climbing FlightAware ADS-B
Sun 09:55:02 PM 32.6596 -95.6066 90° East 456 525 23,600 1,280 Climbing FlightAware ADS-B
Sun 09:55:46 PM 32.6674 -95.4945 85° East 461 531 24,600 768 Climbing FlightAware ADS-B
Sun 09:57:07 PM 32.6810 -95.3090 85° East 471 542 25,200 1,246 Climbing FlightAware ADS-B
Sun 09:57:56 PM 32.6900 -95.1600 86° East 482 555 27,300 2,215 Climbing FlightAware ADS-B
Sun 09:58:12 PM 32.6930 -95.1210 85° East 484 557 27,600 234 Climbing FlightAware ADS-B
Sun 09:59:13 PM 32.7030 -94.9830 85° East 484 557 27,600  Level FlightAware ADS-B
Sun 09:59:37 PM 32.7070 -94.9290 85° East 484 557 27,600  Level FlightAware ADS-B
Sun 10:00:35 PM 32.7160 -94.7980 85° East 484 557 27,600 1,437 Level FlightAware ADS-B
Sun 10:01:59 PM 32.6152 -94.5214 113° Southeast 504 580 31,000 1,759 Climbing FlightAware ADS-B
Sun 10:02:31 PM 32.5842 -94.4386 114° Southeast 515 593 31,000  Level FlightAware ADS-B
Sun 10:03:02 PM 32.5537 -94.3565 114° Southeast 539 620 31,000  Level FlightAware ADS-B
Sun 10:03:33 PM 32.5226 -94.2719 114° Southeast 550 633 31,000  Level FlightAware ADS-B
Sun 10:04:03 PM 32.4916 -94.1881 114° Southeast 552 635 31,000  Level FlightAware ADS-B
Sun 10:04:34 PM 32.4604 -94.1037 114° Southeast 550 633 31,000  Level FlightAware ADS-B
Sun 10:05:05 PM 32.4288 -94.0188 114° Southeast 552 635 31,000  Level FlightAware ADS-B
Sun 10:05:35 PM 32.3979 -93.9358 114° Southeast 552 635 31,000  Level FlightAware ADS-B
Sun 10:06:05 PM 32.3668 -93.8528 114° Southeast 553 636 31,000  Level FlightAware ADS-B
Sun 10:06:40 PM 32.3301 -93.7551 114° Southeast 552 635 31,000  Level FlightAware ADS-B
Sun 10:12:09 PM 31.9838 -92.8473 114° Southeast 560 644 31,000  Level FlightAware ADS-B
Sun 10:12:53 PM 31.9519 -92.7636 114° Southeast 559 643 31,000  Level Houston Center
Sun 10:13:54 PM 31.8869 -92.5978 115° Southeast 558 642 31,000  Level Houston Center
Sun 10:14:55 PM 31.8100 -92.3994 114° Southeast 556 640 31,000  Level Houston Center
Sun 10:15:56 PM 31.7453 -92.2350 115° Southeast 554 638 31,000  Level Houston Center
Sun 10:16:57 PM 31.6803 -92.0703 115° Southeast 556 640 31,000  Level Houston Center
Sun 10:17:58 PM 31.6189 -91.9139 115° Southeast 555 639 31,000  Level Houston Center
Sun 10:18:59 PM 31.5539 -91.7514 115° Southeast 551 634 31,000  Level Houston Center
Sun 10:20:00 PM 31.4883 -91.5875 115° Southeast 552 635 31,000  Level Houston Center
Sun 10:21:01 PM 31.4236 -91.4244 115° Southeast 553 636 31,000  Level Houston Center
Sun 10:22:02 PM 31.3581 -91.2631 115° Southeast 550 633 31,000  Level Houston Center
Sun 10:27:11 PM 31.0070 -90.4050 115° Southeast 551 634 31,000  Level FlightAware ADS-B
Sun 10:27:25 PM 30.9920 -90.3700 117° Southeast 551 634 31,000  Level FlightAware ADS-B
Sun 10:28:11 PM 30.9400 -90.2440 116° Southeast 550 633 31,000  Level FlightAware ADS-B
Sun 10:28:59 PM 30.8860 -90.1150 116° Southeast 551 634 31,000  Level FlightAware ADS-B
Sun 10:29:53 PM 30.8270 -89.9720 116° Southeast 550 633 31,000  Level FlightAware ADS-B
Sun 10:30:53 PM 30.7610 -89.8150 116° Southeast 543 625 31,000  Level FlightAware ADS-B
Sun 10:31:37 PM 30.7120 -89.6990 116° Southeast 538 619 31,000  Level FlightAware ADS-B
Sun 10:32:25 PM 30.6590 -89.5750 116° Southeast 538 619 31,000  Level FlightAware ADS-B
Sun 10:33:06 PM 30.6160 -89.4720 116° Southeast 537 618 31,000  Level FlightAware ADS-B
Sun 10:33:53 PM 30.5620 -89.3470 117° Southeast 537 618 31,000  Level FlightAware ADS-B
Sun 10:34:45 PM 30.5060 -89.2140 116° Southeast 537 618 31,000  Level FlightAware ADS-B
Sun 10:35:26 PM 30.4610 -89.1090 116° Southeast 537 618 31,000  Level FlightAware ADS-B
Sun 10:36:21 PM 30.4000 -88.9680 117° Southeast 538 619 31,000  Level FlightAware ADS-B
Sun 10:37:18 PM 30.3370 -88.8220 117° Southeast 538 619 31,000  Level FlightAware ADS-B
Sun 10:38:09 PM 30.2790 -88.6870 116° Southeast 538 619 31,000  Level FlightAware ADS-B
Sun 10:38:57 PM 30.2260 -88.5650 117° Southeast 536 617 31,000  Level FlightAware ADS-B
Sun 10:39:45 PM 30.1730 -88.4430 117° Southeast 537 618 31,000  Level FlightAware ADS-B
Sun 10:40:39 PM 30.1120 -88.3030 117° Southeast 537 618 31,000  Level FlightAware ADS-B
Sun 10:41:31 PM 30.0550 -88.1740 117° Southeast 535 616 31,000  Level FlightAware ADS-B
Sun 10:41:55 PM 30.0270 -88.1100 117° Southeast 534 615 31,000  Level FlightAware ADS-B
Sun 10:42:47 PM 29.9690 -87.9780 117° Southeast 532 612 31,000  Level FlightAware ADS-B
Sun 10:43:31 PM 29.9220 -87.8720 117° Southeast 530 610 31,000  Level FlightAware ADS-B
Sun 10:44:23 PM 29.8630 -87.7390 117° Southeast 530 610 31,000  Level FlightAware ADS-B
Sun 10:44:47 PM 29.8360 -87.6790 117° Southeast 529 609 31,000  Level FlightAware ADS-B
Sun 10:45:33 PM 29.7860 -87.5670 117° Southeast 530 610 31,000  Level FlightAware ADS-B
Sun 10:46:24 PM 29.7280 -87.4380 117° Southeast 529 609 31,000  Level FlightAware ADS-B
Sun 10:46:45 PM 29.7040 -87.3840 117° Southeast 529 609 31,000  Level FlightAware ADS-B
Sun 10:47:48 PM 29.6420 -87.2440 117° Southeast 529 609 31,000  Level FlightAware ADS-B
Sun 10:48:57 PM 29.5560 -87.0550 118° Southeast 528 608 31,000  Level FlightAware ADS-B
Sun 10:49:51 PM 29.4940 -86.9180 117° Southeast 527 606 31,000  Level FlightAware ADS-B
Sun 10:50:41 PM 29.4380 -86.7940 117° Southeast 526 605 31,000  Level FlightAware ADS-B
Sun 10:51:46 PM 29.3650 -86.6360 118° Southeast 526 605 31,000  Level FlightAware ADS-B
Sun 10:52:35 PM 29.3110 -86.5170 117° Southeast 524 603 31,000  Level FlightAware ADS-B
Sun 10:53:07 PM 29.2740 -86.4350 117° Southeast 522 601 31,000  Level FlightAware ADS-B
Sun 10:53:39 PM 29.2370 -86.3560 118° Southeast 522 601 31,000  Level FlightAware ADS-B
Sun 10:54:16 PM 29.1950 -86.2650 118° Southeast 521 600 31,000  Level FlightAware ADS-B
Sun 10:55:06 PM 29.1390 -86.1440 118° Southeast 521 600 31,000  Level FlightAware ADS-B
Sun 10:55:58 PM 29.0830 -86.0220 118° Southeast 521 600 31,000  Level FlightAware ADS-B
Sun 10:56:41 PM 29.0320 -85.9130 118° Southeast 521 600 31,000  Level FlightAware ADS-B
Sun 10:57:09 PM 29.0000 -85.8450 118° Southeast 520 598 31,000  Level FlightAware ADS-B
Sun 10:57:45 PM 28.9600 -85.7590 118° Southeast 521 600 31,000  Level FlightAware ADS-B
Sun 10:58:46 PM 28.8920 -85.6130 118° Southeast 522 601 31,000  Level FlightAware ADS-B
Sun 10:59:06 PM 28.8680 -85.5630 119° Southeast 522 601 31,000  Level FlightAware ADS-B
Sun 11:00:05 PM 28.8000 -85.4180 118° Southeast 519 597 31,000  Level FlightAware ADS-B
Sun 11:00:27 PM 28.7760 -85.3670 118° Southeast 519 597 31,000  Level FlightAware ADS-B
Sun 11:01:18 PM 28.7180 -85.2430 118° Southeast 519 597 31,000  Level FlightAware ADS-B
Sun 11:01:59 PM 28.6720 -85.1460 118° Southeast 519 597 31,000  Level FlightAware ADS-B
Sun 11:02:48 PM 28.6160 -85.0290 119° Southeast 518 596 31,000  Level FlightAware ADS-B
Sun 11:03:40 PM 28.5570 -84.9050 118° Southeast 518 596 31,000  Level FlightAware ADS-B
Sun 11:04:44 PM 28.4740 -84.7550 122° Southeast 519 597 31,000  Level FlightAware ADS-B
Sun 11:05:21 PM 28.4250 -84.6710 124° Southeast 518 596 31,000  Level FlightAware ADS-B
Sun 11:06:02 PM 28.3690 -84.5770 124° Southeast 518 596 31,000  Level FlightAware ADS-B
Sun 11:07:01 PM 28.2900 -84.4450 124° Southeast 517 595 31,000  Level FlightAware ADS-B
Sun 11:08:00 PM 28.2110 -84.3130 124° Southeast 518 596 31,000  Level FlightAware ADS-B
Sun 11:08:32 PM 28.1700 -84.2440 124° Southeast 518 596 31,000  Level FlightAware ADS-B
Sun 11:09:32 PM 28.0890 -84.1080 124° Southeast 516 594 31,000  Level FlightAware ADS-B
Sun 11:10:20 PM 28.0240 -84.0000 124° Southeast 516 594 31,000  Level FlightAware ADS-B
Sun 11:11:00 PM 27.9720 -83.9120 124° Southeast 515 593 31,000  Level FlightAware ADS-B
Sun 11:11:56 PM 27.8950 -83.7850 124° Southeast 513 590 31,000  Level FlightAware ADS-B
Sun 11:12:46 PM 27.8290 -83.6760 124° Southeast 512 589 31,000  Level FlightAware ADS-B
Sun 11:13:31 PM 27.7690 -83.5760 124° Southeast 510 587 31,000  Level FlightAware ADS-B
Sun 11:14:16 PM 27.7110 -83.4810 125° Southeast 509 586 31,000  Level FlightAware ADS-B
Sun 11:14:36 PM 27.6820 -83.4330 124° Southeast 508 585 31,000  Level FlightAware ADS-B
Sun 11:15:11 PM 27.6370 -83.3590 124° Southeast 508 585 31,000  Level FlightAware ADS-B
Sun 11:16:06 PM 27.5630 -83.2370 124° Southeast 510 587 31,000  Level FlightAware ADS-B
Sun 11:16:55 PM 27.5016 -83.1366 125° Southeast 509 586 31,000  Level FlightAware ADS-B
Sun 11:17:26 PM 27.4549 -83.0602 125° Southeast 511 588 31,000  Level FlightAware ADS-B
Sun 11:18:19 PM 27.3850 -82.9470 125° Southeast 511 588 31,000  Level FlightAware ADS-B
Sun 11:19:21 PM 27.3030 -82.8140 125° Southeast 509 586 31,000  Level FlightAware ADS-B
Sun 11:19:43 PM 27.2709 -82.7609 124° Southeast 510 587 31,000  Level FlightAware ADS-B
Sun 11:21:01 PM 27.1667 -82.5921 125° Southeast 511 588 31,000  Level FlightAware ADS-B
Sun 11:21:32 PM 27.1246 -82.5243 125° Southeast 510 587 31,000  Level FlightAware ADS-B
Sun 11:22:06 PM 27.0813 -82.4543 125° Southeast 507 583 31,000  Level FlightAware ADS-B
Sun 11:22:38 PM 27.0361 -82.3816 125° Southeast 505 581 31,000  Level FlightAware ADS-B
Sun 11:23:13 PM 26.9951 -82.3156 125° Southeast 503 579 31,000  Level FlightAware ADS-B
Sun 11:23:44 PM 26.9514 -82.2453 125° Southeast 503 579 31,000  Level FlightAware ADS-B
Sun 11:24:45 PM 26.8681 -82.1121 125° Southeast 504 580 31,000  Level FlightAware ADS-B
Sun 11:25:17 PM 26.8260 -82.0448 125° Southeast 501 577 31,000  Level FlightAware ADS-B
Sun 11:25:48 PM 26.7841 -81.9779 125° Southeast 499 574 31,000  Level FlightAware ADS-B
Sun 11:26:19 PM 26.7421 -81.9110 125° Southeast 498 573 31,000  Level FlightAware ADS-B
Sun 11:26:50 PM 26.7012 -81.8458 125° Southeast 499 574 31,000  Level FlightAware ADS-B
Sun 11:27:20 PM 26.6654 -81.7889 125° Southeast 500 575 31,000  Level FlightAware ADS-B
Sun 11:28:11 PM 26.5951 -81.6773 125° Southeast 501 577 31,000  Level FlightAware ADS-B
Sun 11:29:09 PM 26.5201 -81.5587 125° Southeast 501 577 31,000  Level FlightAware ADS-B
Sun 11:29:52 PM 26.4578 -81.4605 125° Southeast 504 580 31,000  Level FlightAware ADS-B
Sun 11:30:22 PM 26.4177 -81.3972 125° Southeast 505 581 31,000  Level FlightAware ADS-B
Sun 11:30:53 PM 26.3767 -81.3325 125° Southeast 504 580 31,000  Level FlightAware ADS-B
Sun 11:32:03 PM 26.2843 -81.1877 125° Southeast 504 580 31,000  Level FlightAware ADS-B
Sun 11:32:34 PM 26.2420 -81.1214 125° Southeast 504 580 31,000  Level FlightAware ADS-B
Sun 11:34:06 PM 26.1166 -80.9253 125° Southeast 498 573 31,000  Level FlightAware ADS-B
Sun 11:35:15 PM 26.0240 -80.7820 126° Southeast 497 572 31,000  Level FlightAware ADS-B
Sun 11:36:07 PM 25.9570 -80.6780 126° Southeast 499 574 31,000  Level FlightAware ADS-B
Sun 11:36:48 PM 25.9020 -80.5930 126° Southeast 498 573 31,000  Level FlightAware ADS-B
Sun 11:37:36 PM 25.8380 -80.4930 125° Southeast 497 572 31,000  Level FlightAware ADS-B
Sun 11:38:17 PM 25.7840 -80.4100 126° Southeast 498 573 31,000  Level FlightAware ADS-B
Sun 11:39:19 PM 25.6970 -80.2770 126° Southeast 497 572 31,000  Level FlightAware ADS-B
Sun 11:40:12 PM 25.6280 -80.1700 126° Southeast 499 574 31,000  Level FlightAware ADS-B
Sun 11:41:04 PM 25.5570 -80.0620 126° Southeast 497 572 31,000  Level FlightAware ADS-B
Sun 11:41:36 PM 25.5120 -79.9920 125° Southeast 496 571 31,000  Level FlightAware ADS-B
Sun 11:42:26 PM 25.4480 -79.8940 126° Southeast 495 570 31,000  Level FlightAware ADS-B
Sun 11:42:56 PM 25.4050 -79.8300 127° Southeast 498 573 31,000  Level FlightAware ADS-B
Sun 11:43:52 PM 25.3280 -79.7120 126° Southeast 497 572 31,000  Level FlightAware ADS-B
Sun 11:44:34 PM 25.2700 -79.6250 126° Southeast 496 571 31,000  Level FlightAware ADS-B
Sun 11:45:32 PM 25.1930 -79.5070 126° Southeast 495 570 31,000  Level FlightAware ADS-B
Sun 11:46:20 PM 25.1280 -79.4100 126° Southeast 493 567 31,000  Level FlightAware ADS-B
Sun 11:47:13 PM 25.0570 -79.3030 126° Southeast 492 566 31,000  Level FlightAware ADS-B
Sun 11:47:48 PM 25.0120 -79.2350 126° Southeast 492 566 31,000  Level FlightAware ADS-B
Sun 11:48:48 PM 24.9300 -79.1130 127° Southeast 492 566 31,000  Level FlightAware ADS-B
Sun 11:49:13 PM 24.9000 -79.0670 126° Southeast 492 566 31,000  Level FlightAware ADS-B
Sun 11:50:08 PM 24.8230 -78.9520 126° Southeast 491 565 31,000  Level FlightAware ADS-B
Sun 11:50:39 PM 24.7820 -78.8910 127° Southeast 491 565 31,000  Level FlightAware ADS-B
Sun 11:51:13 PM 24.7380 -78.8250 126° Southeast 491 565 31,000  Level FlightAware ADS-B
Sun 11:52:32 PM 24.6370 -78.6730 126° Southeast 491 565 31,000  Level FlightAware ADS-B
Sun 11:53:21 PM 24.5710 -78.5760 127° Southeast 491 565 31,000  Level FlightAware ADS-B
Sun 11:54:17 PM 24.4950 -78.4620 126° Southeast 492 566 31,000  Level FlightAware ADS-B
Sun 11:55:06 PM 24.4390 -78.3780 126° Southeast 492 566 31,000  Level FlightAware ADS-B
Sun 11:55:54 PM 24.3840 -78.2950 126° Southeast 492 566 31,000  Level FlightAware ADS-B
Sun 11:56:40 PM 24.3320 -78.2160 126° Southeast 492 566 31,000  Level FlightAware ADS-B
Sun 11:57:40 PM 24.2640 -78.1130 126° Southeast 492 566 31,000  Level FlightAware ADS-B
Sun 11:58:17 PM 24.2220 -78.0500 126° Southeast 492 566 31,000  Level FlightAware ADS-B
Sun 11:58:53 PM 24.1810 -77.9880 126° Southeast 492 566 31,000  Level FlightAware ADS-B
Sun 11:59:17 PM 24.1530 -77.9470 127° Southeast 492 566 31,000  Level FlightAware ADS-B
Mon 12:00:18 AM 24.0840 -77.8420 126° Southeast 492 566 31,000  Level FlightAware ADS-B
Mon 12:01:19 AM 24.0150 -77.7380 126° Southeast 492 566 31,000  Level FlightAware ADS-B
Mon 12:02:07 AM 23.9600 -77.6550 126° Southeast 492 566 31,000  Level FlightAware ADS-B
Mon 12:02:31 AM 23.9330 -77.6140 126° Southeast 492 566 31,000  Level FlightAware ADS-B
Mon 12:03:20 AM 23.8770 -77.5300 126° Southeast 492 566 31,000  Level FlightAware ADS-B
Mon 12:03:52 AM 23.7242 -77.3447 126° Southeast 490 564 31,000  Level Miami Center
Mon 12:04:53 AM 23.6347 -77.2128 126° Southeast 490 564 31,000  Level Miami Center
Mon 12:05:53 AM 23.5533 -77.0969 127° Southeast 484 557 31,000  Level Miami Center
Mon 12:06:50 AM 23.4742 -76.9811 127° Southeast 484 557 31,000 154 Level Miami Center
Mon 12:07:50 AM 23.3928 -76.8633 127° Southeast 484 557 31,300 900 Climbing Miami Center
Mon 12:08:50 AM 23.3089 -76.7458 128° Southeast 484 557 32,800 829 Climbing Miami Center
Mon 12:09:53 AM 23.2294 -76.6306 127° Southeast 479 551 33,000 98 Climbing Miami Center
Mon 12:10:53 AM 23.1497 -76.5178 128° Southeast 479 551 33,000  Level Miami Center
Mon 12:11:51 AM 23.0681 -76.4050 128° Southeast 479 551 33,000  Level Miami Center
Mon 12:12:51 AM 22.9861 -76.2881 127° Southeast 479 551 33,000  Level Miami Center
Mon 12:13:51 AM 22.9042 -76.1711 127° Southeast 484 557 33,000  Level Miami Center
Mon 12:14:52 AM 22.8367 -76.0453 120° Southeast 484 557 33,000  Level Miami Center
Mon 12:15:52 AM 22.8128 -75.9011 100° East 474 545 33,000  Level Miami Center
Mon 12:16:51 AM 22.8056 -75.7525 93° East 480 552 33,000  Level Miami Center
Mon 12:17:52 AM 22.7397 -75.6225 119° Southeast 480 552 33,000  Level Miami Center
Mon 12:18:53 AM 22.6678 -75.4992 122° Southeast 485 558 33,000  Level Miami Center
Mon 12:19:50 AM 22.5728 -75.3992 136° Southeast 480 552 33,000  Level Miami Center
Mon 12:20:50 AM 22.4694 -75.3081 141° Southeast 480 552 33,000  Level Miami Center
Mon 12:21:51 AM 22.3639 -75.2150 141° Southeast 480 552 33,000  Level Miami Center
Mon 12:22:52 AM 22.2628 -75.1219 140° Southeast 480 552 33,000  Level Miami Center
Mon 12:23:52 AM 22.1592 -75.0292 140° Southeast 480 552 33,000  Level Miami Center
Mon 12:24:52 AM 22.0578 -74.9342 139° Southeast 480 552 33,000  Level Miami Center
Mon 12:25:50 AM 21.9522 -74.8394 140° Southeast 480 552 33,000  Level Miami Center
Mon 12:26:50 AM 21.8486 -74.7450 140° Southeast 480 552 33,000  Level Miami Center
Mon 12:27:51 AM 21.7450 -74.6528 140° Southeast 480 552 33,000 -50 Level Miami Center
Mon 12:28:51 AM 21.6453 -74.5539 137° Southeast 480 552 32,900 -50 Descending Miami Center
Mon 12:29:50 AM 21.5436 -74.4619 140° Southeast 485 558 32,900 50 Level Miami Center
Mon 12:30:52 AM 21.4378 -74.3700 141° Southeast 485 558 33,000  Climbing Miami Center
Mon 12:31:51 AM 21.3339 -74.2761 140° Southeast 485 558 32,900  Descending Miami Center
Mon 12:32:53 AM 21.2300 -74.1825 140° Southeast 485 558 33,000 50 Climbing Miami Center
Mon 12:33:50 AM 21.1239 -74.0889 141° Southeast 485 558 33,000 -51 Level Miami Center
Mon 12:34:51 AM 21.0178 -73.9933 140° Southeast 485 558 32,900  Descending Miami Center
Mon 12:35:50 AM 20.9181 -73.9044 140° Southeast 485 558 33,000  Climbing Miami Center
Mon 12:36:50 AM 20.8014 -73.7981 140° Southeast 485 558 32,900  Descending Miami Center
Mon 12:37:51 AM 20.6931 -73.7053 141° Southeast 485 558 33,000 50 Climbing Miami Center
Mon 12:38:51 AM 20.5931 -73.6122 139° Southeast 485 558 33,000  Level Miami Center
Mon 12:39:50 AM 20.4867 -73.5194 141° Southeast 485 558 33,000 -50 Level Miami Center
Mon 12:40:51 AM 20.3803 -73.4247 140° Southeast 492 566 32,900  Descending Miami Center
Mon 12:41:52 AM 20.2719 -73.3325 141° Southeast 497 572 33,000 50 Climbing Miami Center
Mon 12:42:50 AM 20.1656 -73.2381 140° Southeast 502 578 33,000  Level Miami Center
Mon 12:44:00 AM 20.0455 -73.1288 137° Southeast  Level FlightAware Approximate
Mon 12:51:00 AM 19.2961 -72.5104 142° Southeast  Level FlightAware Approximate
Mon 12:52:00 AM 19.1883 -72.4232 143° Southeast  Level FlightAware Approximate
Mon 12:53:00 AM 19.0805 -72.3362 143° Southeast  Level FlightAware Approximate
Mon 12:54:00 AM 18.9726 -72.2492 143° Southeast  Level FlightAware Approximate
Mon 12:55:00 AM 18.8647 -72.1624 143° Southeast  Level FlightAware Approximate
Mon 12:55:40 AM 18.7670 -72.0860 143° Southeast 493 567 33,000  Level FlightAware ADS-B
Mon 12:56:00 AM 18.7568 -72.0757 143° Southeast  Level FlightAware Approximate
Mon 12:56:31 AM 18.6750 -72.0120 143° Southeast 490 564 33,000  Level FlightAware ADS-B
Mon 12:56:40 AM 18.6570 -71.9970 142° Southeast 490 564 33,000  Level FlightAware ADS-B
Mon 12:57:42 AM 18.5630 -71.9190 142° Southeast 490 564 33,000  Level FlightAware ADS-B
Mon 12:58:42 AM 18.4720 -71.8440 142° Southeast 490 564 33,000  Level FlightAware ADS-B
Mon 12:59:24 AM 18.3620 -71.7600 144° Southeast 491 565 33,000  Level FlightAware ADS-B
Mon 01:00:18 AM 18.2650 -71.6830 143° Southeast 489 563 33,000  Level FlightAware ADS-B
Mon 01:01:09 AM 18.1750 -71.6120 143° Southeast 489 563 33,000  Level FlightAware ADS-B
Mon 01:02:08 AM 18.0860 -71.5390 142° Southeast 489 563 33,000  Level FlightAware ADS-B
Mon 01:02:26 AM 18.0320 -71.4990 145° Southeast 489 563 33,000  Level FlightAware ADS-B
Mon 01:03:24 AM 17.9360 -71.4220 143° Southeast 489 563 33,000  Level FlightAware ADS-B
Mon 01:03:52 AM 17.8780 -71.3770 144° Southeast 489 563 33,000  Level FlightAware ADS-B
Mon 01:04:52 AM 17.7830 -71.3000 142° Southeast 489 563 33,000  Level FlightAware ADS-B
Mon 01:05:29 AM 17.7270 -71.2540 142° Southeast 489 563 33,000  Level FlightAware ADS-B
Mon 01:06:28 AM 17.5940 -71.1530 144° Southeast 492 566 33,000  Level FlightAware ADS-B
Mon 01:07:00 AM 17.5350 -71.1070 143° Southeast 493 567 33,000  Level FlightAware ADS-B
Mon 01:07:58 AM 17.4280 -71.0230 143° Southeast 496 571 33,000  Level FlightAware ADS-B
Mon 01:08:26 AM 17.3780 -70.9840 143° Southeast 497 572 33,000  Level FlightAware ADS-B
Mon 01:09:38 AM 17.2450 -70.8800 143° Southeast 500 575 33,000  Level FlightAware ADS-B
Mon 01:10:44 AM 17.1240 -70.7850 143° Southeast 499 574 33,000  Level FlightAware ADS-B
Mon 01:11:00 AM 17.0910 -70.7600 144° Southeast 498 573 33,000  Level FlightAware ADS-B
Mon 01:11:31 AM 17.0540 -70.7310 143° Southeast 498 573 33,000  Level FlightAware ADS-B
Mon 01:12:04 AM 16.9750 -70.6690 143° Southeast 498 573 33,000  Level FlightAware ADS-B
Mon 01:12:42 AM 16.9040 -70.6140 143° Southeast 498 573 33,000  Level FlightAware ADS-B
Mon 01:13:22 AM 16.8280 -70.5550 143° Southeast 499 574 33,000  Level FlightAware ADS-B
Mon 01:14:24 AM 16.7140 -70.4660 143° Southeast 502 578 33,000  Level FlightAware ADS-B
Mon 01:15:30 AM 16.5900 -70.3700 143° Southeast 501 577 33,000  Level FlightAware ADS-B
Mon 01:16:30 AM 16.4790 -70.2840 143° Southeast 501 577 33,000  Level FlightAware ADS-B
Mon 01:17:30 AM 16.3670 -70.1980 144° Southeast 500 575 33,000  Level FlightAware ADS-B
Mon 01:18:01 AM 16.3100 -70.1540 143° Southeast 500 575 33,000  Level FlightAware ADS-B
Mon 01:18:32 AM 16.2510 -70.1080 143° Southeast 500 575 33,000  Level FlightAware ADS-B
Mon 01:19:14 AM 16.1740 -70.0480 143° Southeast 500 575 33,000  Level FlightAware ADS-B
Mon 01:19:50 AM 16.1090 -69.9990 144° Southeast 500 575 33,000  Level FlightAware ADS-B
Mon 01:20:22 AM 16.0470 -69.9510 143° Southeast 500 575 33,000  Level FlightAware ADS-B
Mon 01:20:58 AM 15.9790 -69.8990 144° Southeast 500 575 33,000  Level FlightAware ADS-B
Mon 01:21:24 AM 15.9290 -69.8620 145° Southeast 500 575 33,000  Level FlightAware ADS-B
Mon 01:22:02 AM 15.8590 -69.8110 145° Southeast 501 577 33,000  Level FlightAware ADS-B
Mon 01:22:30 AM 15.8050 -69.7710 145° Southeast 500 575 33,000  Level FlightAware ADS-B
Mon 01:23:16 AM 15.7310 -69.7160 144° Southeast 500 575 33,000  Level FlightAware ADS-B
Mon 01:23:52 AM 15.6740 -69.6730 144° Southeast 500 575 33,000  Level FlightAware ADS-B
Mon 01:24:21 AM 15.6020 -69.6230 146° Southeast 492 566 33,000  Level FlightAware ADS-B
Mon 01:24:46 AM 15.5550 -69.5880 144° Southeast 492 566 33,000  Level FlightAware ADS-B
Mon 01:25:24 AM 15.4760 -69.5310 145° Southeast 499 574 33,000  Level FlightAware ADS-B
Mon 01:26:00 AM 15.4080 -69.4810 145° Southeast 499 574 33,000  Level FlightAware ADS-B
Mon 01:26:57 AM 15.3040 -69.4050 145° Southeast 494 568 33,000  Level FlightAware ADS-B
Mon 01:27:41 AM 15.2190 -69.3440 145° Southeast 494 568 33,000  Level FlightAware ADS-B
Mon 01:28:17 AM 15.1500 -69.2930 144° Southeast 495 570 33,000  Level FlightAware ADS-B
Mon 01:28:52 AM 15.0860 -69.2460 145° Southeast 496 571 33,000  Level FlightAware ADS-B
Mon 01:29:22 AM 15.0280 -69.2050 146° Southeast 497 572 33,000  Level FlightAware ADS-B
Mon 01:30:22 AM 14.9140 -69.1220 145° Southeast 495 570 33,000  Level FlightAware ADS-B
Mon 01:31:01 AM 14.8380 -69.0670 145° Southeast 496 571 33,000  Level FlightAware ADS-B
Mon 01:31:57 AM 14.7310 -68.9900 145° Southeast 495 570 33,000  Level FlightAware ADS-B
Mon 01:32:32 AM 14.6630 -68.9400 145° Southeast 495 570 33,000  Level FlightAware ADS-B
Mon 01:33:37 AM 14.5400 -68.8520 145° Southeast 496 571 33,000  Level FlightAware ADS-B
Mon 01:34:08 AM 14.4820 -68.8090 144° Southeast 495 570 33,000  Level FlightAware ADS-B
Mon 01:35:07 AM 14.3670 -68.7270 145° Southeast 497 572 33,000  Level FlightAware ADS-B
Mon 01:35:38 AM 14.3090 -68.6850 145° Southeast 496 571 33,000  Level FlightAware ADS-B
Mon 01:36:12 AM 14.2440 -68.6380 145° Southeast 495 570 33,000  Level FlightAware ADS-B
Mon 01:36:43 AM 14.1860 -68.5960 145° Southeast 495 570 33,000  Level FlightAware ADS-B
Mon 01:37:18 AM 14.1180 -68.5470 145° Southeast 494 568 33,000  Level FlightAware ADS-B
Mon 01:38:23 AM 13.9940 -68.4580 145° Southeast 494 568 33,000  Level FlightAware ADS-B
Mon 01:39:24 AM 13.8780 -68.3750 145° Southeast 494 568 33,000  Level FlightAware ADS-B
Mon 01:40:04 AM 13.8030 -68.3220 146° Southeast 493 567 33,000  Level FlightAware ADS-B
Mon 01:40:39 AM 13.7350 -68.2730 145° Southeast 492 566 33,000  Level FlightAware ADS-B
Mon 01:41:14 AM 13.6700 -68.2260 145° Southeast 493 567 33,000  Level FlightAware ADS-B
Mon 01:41:49 AM 13.6030 -68.1780 145° Southeast 495 570 33,000  Level FlightAware ADS-B
Mon 01:42:18 AM 13.5460 -68.1380 146° Southeast 495 570 33,000  Level FlightAware ADS-B
Mon 01:42:54 AM 13.4790 -68.0900 145° Southeast 496 571 33,000  Level FlightAware ADS-B
Mon 01:43:49 AM 13.3740 -68.0150 145° Southeast 493 567 33,000  Level FlightAware ADS-B
Mon 01:44:19 AM 13.3160 -67.9730 145° Southeast 494 568 33,000  Level FlightAware ADS-B
Mon 01:44:55 AM 13.2490 -67.9250 145° Southeast 494 568 33,000  Level FlightAware ADS-B
Mon 01:45:30 AM 13.1810 -67.8770 145° Southeast 493 567 33,000  Level FlightAware ADS-B
Mon 01:45:59 AM 13.1250 -67.8370 145° Southeast 494 568 33,000  Level FlightAware ADS-B
Mon 01:46:35 AM 13.0570 -67.7890 145° Southeast 494 568 33,000  Level FlightAware ADS-B
Mon 01:47:15 AM 12.9810 -67.7350 145° Southeast 495 570 33,000  Level FlightAware ADS-B
Mon 01:47:41 AM 12.9320 -67.7010 146° Southeast 495 570 33,000  Level FlightAware ADS-B
Mon 01:48:41 AM 12.8180 -67.6200 145° Southeast 495 570 33,000  Level FlightAware ADS-B
Mon 01:49:19 AM 12.7430 -67.5670 145° Southeast 495 570 33,000  Level FlightAware ADS-B
Mon 01:49:46 AM 12.6940 -67.5320 145° Southeast 496 571 33,000  Level FlightAware ADS-B
Mon 01:50:24 AM 12.6180 -67.4790 146° Southeast 496 571 33,000  Level FlightAware ADS-B
Mon 01:50:50 AM 12.5690 -67.4450 146° Southeast 504 580 33,000  Level FlightAware ADS-B
Mon 01:51:55 AM 12.4420 -67.3550 145° Southeast 504 580 33,000  Level FlightAware ADS-B
Mon 01:53:05 AM 12.3070 -67.2610 146° Southeast 504 580 33,000  Level FlightAware ADS-B
Mon 01:53:41 AM 12.2390 -67.2130 145° Southeast 504 580 33,000  Level FlightAware ADS-B
Mon 01:54:20 AM 12.1630 -67.1600 146° Southeast 504 580 33,000  Level FlightAware ADS-B
Mon 01:55:01 AM 12.0850 -67.1050 145° Southeast 504 580 33,000  Level FlightAware ADS-B
Mon 01:55:56 AM 11.9790 -67.0310 146° Southeast 503 579 33,000  Level FlightAware ADS-B
Mon 01:56:25 AM 11.9240 -66.9930 146° Southeast 504 580 33,000  Level FlightAware ADS-B
Mon 01:56:51 AM 11.8730 -66.9570 145° Southeast 504 580 33,000  Level FlightAware ADS-B
Mon 01:57:31 AM 11.7950 -66.9020 145° Southeast 496 571 33,000  Level FlightAware ADS-B
Mon 01:58:06 AM 11.7290 -66.8560 146° Southeast 504 580 33,000  Level FlightAware ADS-B
Mon 01:58:36 AM 11.6710 -66.8150 145° Southeast 504 580 33,000  Level FlightAware ADS-B
Mon 01:59:57 AM 11.5150 -66.7060 146° Southeast 497 572 33,000  Level FlightAware ADS-B
Mon 02:01:02 AM 11.3890 -66.6180 146° Southeast 506 582 33,000  Level FlightAware ADS-B
Mon 02:01:39 AM 11.3290 -66.5750 145° Southeast 506 582 33,000  Level FlightAware ADS-B
Mon 02:02:28 AM 11.2490 -66.5180 145° Southeast 506 582 33,000  Level FlightAware ADS-B
Mon 02:03:04 AM 11.1900 -66.4760 145° Southeast 506 582 33,000  Level FlightAware ADS-B
Mon 02:04:17 AM 11.0710 -66.3910 145° Southeast 506 582 33,000  Level FlightAware ADS-B
Mon 02:04:41 AM 11.0320 -66.3630 145° Southeast 506 582 33,000  Level FlightAware ADS-B
Mon 02:05:42 AM 10.9330 -66.2920 145° Southeast 506 582 33,000  Level FlightAware ADS-B
Mon 02:06:06 AM 10.8940 -66.2640 145° Southeast 506 582 33,000  Level FlightAware ADS-B
Mon 02:07:20 AM 10.7730 -66.1780 145° Southeast 506 582 33,000  Level FlightAware ADS-B
Mon 02:07:44 AM 10.7340 -66.1500 145° Southeast 506 582 33,000  Level FlightAware ADS-B
Mon 02:08:21 AM 10.6740 -66.1070 145° Southeast 506 582 33,000  Level FlightAware ADS-B
Mon 02:08:58 AM 10.6130 -66.0640 145° Southeast 506 582 33,000  Level FlightAware ADS-B
Mon 02:09:59 AM 10.3790 -65.9010 146° Southeast 492 566 33,000  Level FlightAware ADS-B
Mon 02:11:00 AM 10.2860 -65.8280 142° Southeast 492 566 33,000  Level FlightAware ADS-B
Mon 02:12:04 AM 10.1880 -65.7500 142° Southeast 492 566 33,000  Level FlightAware ADS-B
Mon 02:12:41 AM 10.1320 -65.7050 142° Southeast 492 566 33,000  Level FlightAware ADS-B
Mon 02:13:18 AM 10.0760 -65.6610 142° Southeast 492 566 33,000  Level FlightAware ADS-B
Mon 02:13:54 AM 10.0210 -65.6170 142° Southeast 492 566 33,000  Level FlightAware ADS-B
Mon 02:14:31 AM 9.9640 -65.5720 142° Southeast 492 566 33,000  Level FlightAware ADS-B
Mon 02:15:32 AM 9.8710 -65.4990 142° Southeast 492 566 33,000  Level FlightAware ADS-B
Mon 02:16:08 AM 9.8160 -65.4550 142° Southeast 492 566 33,000  Level FlightAware ADS-B
Mon 02:17:08 AM 9.7250 -65.3820 142° Southeast 492 566 33,000  Level FlightAware ADS-B
Mon 02:17:32 AM 9.6880 -65.3530 142° Southeast 492 566 33,000  Level FlightAware ADS-B
Mon 02:18:08 AM 9.6340 -65.3100 142° Southeast 492 566 33,000  Level FlightAware ADS-B
Mon 02:18:56 AM 9.5600 -65.2520 142° Southeast 492 566 33,000  Level FlightAware ADS-B
Mon 02:22:00 AM 9.2006 -65.0542 145° Southeast  Level FlightAware Approximate
Mon 02:23:00 AM 9.0919 -64.9771 145° Southeast  Level FlightAware Approximate
Mon 02:24:00 AM 8.9831 -64.9000 145° Southeast  Level FlightAware Approximate
Mon 02:25:00 AM 8.8743 -64.8230 145° Southeast  Level FlightAware Approximate
Mon 02:26:00 AM 8.7655 -64.7461 145° Southeast  Level FlightAware Approximate
Mon 02:27:00 AM 8.6567 -64.6692 145° Southeast  Level FlightAware Approximate
Mon 02:28:00 AM 8.5478 -64.5923 145° Southeast  Level FlightAware Approximate
Mon 02:29:00 AM 8.4390 -64.5155 145° Southeast  Level FlightAware Approximate
Mon 02:30:00 AM 8.3301 -64.4387 145° Southeast  Level FlightAware Approximate
Mon 02:31:00 AM 8.2212 -64.3620 145° Southeast  Level FlightAware Approximate
Mon 02:32:00 AM 8.1124 -64.2853 145° Southeast  Level FlightAware Approximate
Mon 02:33:00 AM 8.0034 -64.2086 145° Southeast  Level FlightAware Approximate
Mon 02:34:00 AM 7.8945 -64.1320 145° Southeast  Level FlightAware Approximate
Mon 02:35:00 AM 7.7856 -64.0555 145° Southeast  Level FlightAware Approximate
Mon 02:36:00 AM 7.6766 -63.9789 145° Southeast  Level FlightAware Approximate
Mon 02:37:00 AM 7.5677 -63.9025 145° Southeast  Level FlightAware Approximate
Mon 02:38:00 AM 7.4583 -63.8266 146° Southeast  Level FlightAware Approximate
Mon 02:39:00 AM 7.3486 -63.7513 146° Southeast  Level FlightAware Approximate
Mon 02:40:00 AM 7.2388 -63.6760 146° Southeast  Level FlightAware Approximate
Mon 02:41:00 AM 7.1290 -63.6007 146° Southeast  Level FlightAware Approximate
Mon 02:42:00 AM 7.0193 -63.5255 146° Southeast  Level FlightAware Approximate
Mon 02:43:00 AM 6.9095 -63.4503 146° Southeast  Level FlightAware Approximate
Mon 02:44:00 AM 6.7997 -63.3752 146° Southeast  Level FlightAware Approximate
Mon 02:45:00 AM 6.6899 -63.3001 146° Southeast  Level FlightAware Approximate
Mon 02:46:00 AM 6.5801 -63.2250 146° Southeast  Level FlightAware Approximate
Mon 02:47:00 AM 6.4703 -63.1500 146° Southeast  Level FlightAware Approximate
Mon 02:48:00 AM 6.3604 -63.0750 146° Southeast  Level FlightAware Approximate
Mon 02:49:00 AM 6.2506 -63.0000 146° Southeast  Level FlightAware Approximate
Mon 02:50:00 AM 6.1407 -62.9250 146° Southeast  Level FlightAware Approximate
Mon 02:51:00 AM 6.0308 -62.8501 146° Southeast  Level FlightAware Approximate
Mon 02:52:00 AM 5.9210 -62.7752 146° Southeast  Level FlightAware Approximate
Mon 02:53:00 AM 5.8111 -62.7004 146° Southeast  Level FlightAware Approximate
Mon 02:54:00 AM 5.7012 -62.6255 146° Southeast  Level FlightAware Approximate
Mon 02:55:00 AM 5.5913 -62.5507 146° Southeast  Level FlightAware Approximate
Mon 02:56:00 AM 5.4814 -62.4759 146° Southeast  Level FlightAware Approximate
Mon 02:57:00 AM 5.3717 -62.4008 146° Southeast  Level FlightAware Approximate
Mon 02:58:00 AM 5.2620 -62.3258 146° Southeast  Level FlightAware Approximate
Mon 02:59:00 AM 5.1522 -62.2508 146° Southeast  Level FlightAware Approximate
Mon 03:00:00 AM 5.0425 -62.1758 146° Southeast  Level FlightAware Approximate
Mon 03:01:00 AM 4.9328 -62.1008 146° Southeast  Level FlightAware Approximate
Mon 03:02:00 AM 4.8230 -62.0259 146° Southeast  Level FlightAware Approximate
Mon 03:03:00 AM 4.7132 -61.9510 146° Southeast  Level FlightAware Approximate
Mon 03:04:00 AM 4.6035 -61.8761 146° Southeast  Level FlightAware Approximate
Mon 03:05:00 AM 4.4937 -61.8013 146° Southeast  Level FlightAware Approximate
Mon 03:06:00 AM 4.3839 -61.7264 146° Southeast  Level FlightAware Approximate
Mon 03:07:00 AM 4.2741 -61.6516 146° Southeast  Level FlightAware Approximate
Mon 03:08:00 AM 4.1643 -61.5768 146° Southeast  Level FlightAware Approximate
Mon 03:09:00 AM 4.0545 -61.5020 146° Southeast  Level FlightAware Approximate
Mon 03:10:00 AM 3.9447 -61.4273 146° Southeast  Level FlightAware Approximate
Mon 03:11:00 AM 3.8349 -61.3526 146° Southeast  Level FlightAware Approximate
Mon 03:12:00 AM 3.7250 -61.2778 146° Southeast  Level FlightAware Approximate
Mon 03:13:00 AM 3.6152 -61.2031 146° Southeast  Level FlightAware Approximate
Mon 03:14:00 AM 3.5053 -61.1284 146° Southeast  Level FlightAware Approximate
Mon 03:15:00 AM 3.3955 -61.0538 146° Southeast  Level FlightAware Approximate
Mon 03:16:00 AM 3.2856 -60.9791 146° Southeast  Level FlightAware Approximate
Mon 03:17:00 AM 3.1758 -60.9045 146° Southeast  Level FlightAware Approximate
Mon 03:18:00 AM 3.0659 -60.8299 146° Southeast  Level FlightAware Approximate
Mon 03:19:00 AM 2.9560 -60.7553 146° Southeast  Level FlightAware Approximate
Mon 03:20:00 AM 2.8459 -60.6812 153° Southeast  Level FlightAware Approximate
Mon 03:21:00 AM 2.7277 -60.6207 153° Southeast  Level FlightAware Approximate
Mon 03:22:00 AM 2.6095 -60.5603 153° Southeast  Level FlightAware Approximate
Mon 03:23:00 AM 2.4913 -60.4998 153° Southeast  Level FlightAware Approximate
Mon 03:24:00 AM 2.3730 -60.4394 153° Southeast  Level FlightAware Approximate
Mon 03:25:00 AM 2.2548 -60.3789 153° Southeast  Level FlightAware Approximate
Mon 03:26:00 AM 2.1366 -60.3185 153° Southeast  Level FlightAware Approximate
Mon 03:27:00 AM 2.0184 -60.2581 153° Southeast  Level FlightAware Approximate
Mon 03:28:00 AM 1.9002 -60.1977 153° Southeast  Level FlightAware Approximate
Mon 03:29:00 AM 1.7820 -60.1373 153° Southeast  Level FlightAware Approximate
Mon 03:30:00 AM 1.6638 -60.0769 153° Southeast  Level FlightAware Approximate
Mon 03:31:00 AM 1.5455 -60.0165 153° Southeast  Level FlightAware Approximate
Mon 03:32:00 AM 1.4273 -59.9561 153° Southeast  Level FlightAware Approximate
Mon 03:33:00 AM 1.3091 -59.8957 153° Southeast  Level FlightAware Approximate
Mon 03:34:00 AM 1.1908 -59.8353 153° Southeast  Level FlightAware Approximate
Mon 03:35:00 AM 1.0726 -59.7750 153° Southeast  Level FlightAware Approximate
Mon 03:36:00 AM 0.9544 -59.7146 153° Southeast  Level FlightAware Approximate
Mon 03:37:00 AM 0.8361 -59.6543 153° Southeast  Level FlightAware Approximate
Mon 03:38:00 AM 0.7179 -59.5939 153° Southeast  Level FlightAware Approximate
Mon 03:39:00 AM 0.5997 -59.5336 153° Southeast  Level FlightAware Approximate
Mon 03:40:00 AM 0.4815 -59.4732 153° Southeast  Level FlightAware Approximate
Mon 03:41:00 AM 0.3632 -59.4128 153° Southeast  Level FlightAware Approximate
Mon 03:42:00 AM 0.2450 -59.3525 153° Southeast  Level FlightAware Approximate
Mon 03:43:00 AM 0.1268 -59.2922 153° Southeast  Level FlightAware Approximate
Mon 03:44:00 AM 0.0085 -59.2318 153° Southeast  Level FlightAware Approximate
Mon 03:45:00 AM -0.1097 -59.1715 153° Southeast  Level FlightAware Approximate
Mon 03:46:00 AM -0.2280 -59.1111 153° Southeast  Level FlightAware Approximate
Mon 03:47:00 AM -0.3462 -59.0508 153° Southeast  Level FlightAware Approximate
Mon 03:48:00 AM -0.4644 -58.9905 153° Southeast  Level FlightAware Approximate
Mon 03:49:00 AM -0.5827 -58.9301 153° Southeast  Level FlightAware Approximate
Mon 03:50:00 AM -0.7009 -58.8698 153° Southeast  Level FlightAware Approximate
Mon 03:51:00 AM -0.8191 -58.8094 153° Southeast  Level FlightAware Approximate
Mon 03:52:00 AM -0.9374 -58.7491 153° Southeast  Level FlightAware Approximate
Mon 03:53:00 AM -1.0556 -58.6887 153° Southeast  Level FlightAware Approximate
Mon 03:54:00 AM -1.1738 -58.6283 153° Southeast  Level FlightAware Approximate
Mon 03:55:00 AM -1.2921 -58.5680 153° Southeast  Level FlightAware Approximate
Mon 03:56:00 AM -1.4103 -58.5076 153° Southeast  Level FlightAware Approximate
Mon 03:57:00 AM -1.5285 -58.4472 153° Southeast  Level FlightAware Approximate
Mon 03:58:00 AM -1.6467 -58.3868 153° Southeast  Level FlightAware Approximate
Mon 03:59:00 AM -1.7650 -58.3264 153° Southeast  Level FlightAware Approximate
Mon 04:00:00 AM -1.8832 -58.2660 153° Southeast  Level FlightAware Approximate
Mon 04:01:00 AM -2.0014 -58.2056 153° Southeast  Level FlightAware Approximate
Mon 04:02:00 AM -2.1196 -58.1452 153° Southeast  Level FlightAware Approximate
Mon 04:03:00 AM -2.2378 -58.0848 153° Southeast  Level FlightAware Approximate
Mon 04:04:00 AM -2.3560 -58.0243 153° Southeast  Level FlightAware Approximate
Mon 04:05:00 AM -2.4742 -57.9639 153° Southeast  Level FlightAware Approximate
Mon 04:06:00 AM -2.5924 -57.9034 153° Southeast  Level FlightAware Approximate
Mon 04:07:00 AM -2.7106 -57.8429 153° Southeast  Level FlightAware Approximate
Mon 04:08:00 AM -2.8289 -57.7825 153° Southeast  Level FlightAware Approximate
Mon 04:09:00 AM -2.9471 -57.7220 153° Southeast  Level FlightAware Approximate
Mon 04:10:00 AM -3.0652 -57.6614 153° Southeast  Level FlightAware Approximate
Mon 04:11:00 AM -3.1834 -57.6009 153° Southeast  Level FlightAware Approximate
Mon 04:12:00 AM -3.3016 -57.5404 153° Southeast  Level FlightAware Approximate
Mon 04:13:00 AM -3.4198 -57.4798 153° Southeast  Level FlightAware Approximate
Mon 04:14:00 AM -3.5380 -57.4193 153° Southeast  Level FlightAware Approximate
Mon 04:15:00 AM -3.6562 -57.3587 153° Southeast  Level FlightAware Approximate
Mon 04:16:00 AM -3.7743 -57.2981 153° Southeast  Level FlightAware Approximate
Mon 04:17:00 AM -3.8925 -57.2375 153° Southeast  Level FlightAware Approximate
Mon 04:18:00 AM -4.0107 -57.1769 153° Southeast  Level FlightAware Approximate
Mon 04:19:00 AM -4.1288 -57.1162 153° Southeast  Level FlightAware Approximate
Mon 04:20:00 AM -4.2470 -57.0555 153° Southeast  Level FlightAware Approximate
Mon 04:21:00 AM -4.3651 -56.9949 153° Southeast  Level FlightAware Approximate
Mon 04:22:00 AM -4.4833 -56.9342 153° Southeast  Level FlightAware Approximate
Mon 04:23:00 AM -4.6014 -56.8734 153° Southeast  Level FlightAware Approximate
Mon 04:24:00 AM -4.7195 -56.8127 153° Southeast  Level FlightAware Approximate
Mon 04:25:00 AM -4.8376 -56.7519 153° Southeast  Level FlightAware Approximate
Mon 04:26:00 AM -4.9558 -56.6912 153° Southeast  Level FlightAware Approximate
Mon 04:27:00 AM -5.0739 -56.6303 153° Southeast  Level FlightAware Approximate
Mon 04:28:00 AM -5.1920 -56.5695 153° Southeast  Level FlightAware Approximate
Mon 04:29:00 AM -5.3101 -56.5087 153° Southeast  Level FlightAware Approximate
Mon 04:30:00 AM -5.4282 -56.4478 153° Southeast  Level FlightAware Approximate
Mon 04:31:00 AM -5.5463 -56.3869 153° Southeast  Level FlightAware Approximate
Mon 04:32:00 AM -5.6644 -56.3260 153° Southeast  Level FlightAware Approximate
Mon 04:33:00 AM -5.7825 -56.2650 153° Southeast  Level FlightAware Approximate
Mon 04:34:00 AM -5.9005 -56.2041 153° Southeast  Level FlightAware Approximate
Mon 04:35:00 AM -6.0186 -56.1431 153° Southeast  Level FlightAware Approximate
Mon 04:36:00 AM -6.1367 -56.0820 153° Southeast  Level FlightAware Approximate
Mon 04:37:00 AM -6.2547 -56.0210 153° Southeast  Level FlightAware Approximate
Mon 04:38:00 AM -6.3728 -55.9599 153° Southeast  Level FlightAware Approximate
Mon 04:39:00 AM -6.4908 -55.8988 153° Southeast  Level FlightAware Approximate
Mon 04:40:00 AM -6.6088 -55.8377 153° Southeast  Level FlightAware Approximate
Mon 04:41:00 AM -6.7269 -55.7765 153° Southeast  Level FlightAware Approximate
Mon 04:42:00 AM -6.8449 -55.7153 153° Southeast  Level FlightAware Approximate
Mon 04:43:00 AM -6.9629 -55.6540 153° Southeast  Level FlightAware Approximate
Mon 04:44:00 AM -7.0809 -55.5928 153° Southeast  Level FlightAware Approximate
Mon 04:45:00 AM -7.1989 -55.5315 153° Southeast  Level FlightAware Approximate
Mon 04:46:00 AM -7.3169 -55.4702 153° Southeast  Level FlightAware Approximate
Mon 04:47:00 AM -7.4349 -55.4088 153° Southeast  Level FlightAware Approximate
Mon 04:48:00 AM -7.5528 -55.3474 153° Southeast  Level FlightAware Approximate
Mon 04:49:00 AM -7.6708 -55.2860 153° Southeast  Level FlightAware Approximate
Mon 04:50:00 AM -7.7887 -55.2246 153° Southeast  Level FlightAware Approximate
Mon 04:51:00 AM -7.9067 -55.1631 153° Southeast  Level FlightAware Approximate
Mon 04:52:00 AM -8.0246 -55.1016 153° Southeast  Level FlightAware Approximate
Mon 04:53:00 AM -8.1425 -55.0400 153° Southeast  Level FlightAware Approximate
Mon 04:54:00 AM -8.2604 -54.9784 153° Southeast  Level FlightAware Approximate
Mon 04:55:00 AM -8.3784 -54.9168 153° Southeast  Level FlightAware Approximate
Mon 04:56:00 AM -8.4963 -54.8551 153° Southeast  Level FlightAware Approximate
Mon 04:57:00 AM -8.6141 -54.7934 153° Southeast  Level FlightAware Approximate
Mon 04:58:00 AM -8.7320 -54.7316 153° Southeast  Level FlightAware Approximate
Mon 04:59:00 AM -8.8499 -54.6699 153° Southeast  Level FlightAware Approximate
Mon 05:00:00 AM -8.9677 -54.6080 153° Southeast  Level FlightAware Approximate
Mon 05:01:00 AM -9.0856 -54.5462 153° Southeast  Level FlightAware Approximate
Mon 05:02:00 AM -9.2034 -54.4843 153° Southeast  Level FlightAware Approximate
Mon 05:03:00 AM -9.3213 -54.4223 153° Southeast  Level FlightAware Approximate
Mon 05:04:00 AM -9.4391 -54.3603 153° Southeast  Level FlightAware Approximate
Mon 05:05:00 AM -9.5569 -54.2983 153° Southeast  Level FlightAware Approximate
Mon 05:06:00 AM -9.6747 -54.2362 153° Southeast  Level FlightAware Approximate
Mon 05:07:00 AM -9.7924 -54.1741 153° Southeast  Level FlightAware Approximate
Mon 05:08:00 AM -9.9102 -54.1119 153° Southeast  Level FlightAware Approximate
Mon 05:09:00 AM -10.0280 -54.0497 153° Southeast  Level FlightAware Approximate
Mon 05:10:00 AM -10.1457 -53.9875 153° Southeast  Level FlightAware Approximate
Mon 05:11:00 AM -10.2635 -53.9252 152° Southeast  Level FlightAware Approximate
Mon 05:12:00 AM -10.3812 -53.8629 152° Southeast  Level FlightAware Approximate
Mon 05:13:00 AM -10.4989 -53.8005 152° Southeast  Level FlightAware Approximate
Mon 05:14:00 AM -10.6166 -53.7380 152° Southeast  Level FlightAware Approximate
Mon 05:15:00 AM -10.7343 -53.6755 152° Southeast  Level FlightAware Approximate
Mon 05:16:00 AM -10.8520 -53.6130 152° Southeast  Level FlightAware Approximate
Mon 05:17:00 AM -10.9696 -53.5504 152° Southeast  Level FlightAware Approximate
Mon 05:18:00 AM -11.0873 -53.4878 152° Southeast  Level FlightAware Approximate
Mon 05:19:00 AM -11.2049 -53.4251 152° Southeast  Level FlightAware Approximate
Mon 05:20:00 AM -11.3225 -53.3624 152° Southeast  Level FlightAware Approximate
Mon 05:21:00 AM -11.4401 -53.2996 152° Southeast  Level FlightAware Approximate
Mon 05:22:00 AM -11.5577 -53.2367 152° Southeast  Level FlightAware Approximate
Mon 05:23:00 AM -11.6753 -53.1739 152° Southeast  Level FlightAware Approximate
Mon 05:24:00 AM -11.7929 -53.1109 152° Southeast  Level FlightAware Approximate
Mon 05:25:00 AM -11.9104 -53.0479 152° Southeast  Level FlightAware Approximate
Mon 05:26:00 AM -12.0280 -52.9849 152° Southeast  Level FlightAware Approximate
Mon 05:27:00 AM -12.1455 -52.9217 152° Southeast  Level FlightAware Approximate
Mon 05:28:00 AM -12.2630 -52.8586 152° Southeast  Level FlightAware Approximate
Mon 05:29:00 AM -12.3805 -52.7954 152° Southeast  Level FlightAware Approximate
Mon 05:30:00 AM -12.4980 -52.7321 152° Southeast  Level FlightAware Approximate
Mon 05:31:00 AM -12.6155 -52.6687 152° Southeast  Level FlightAware Approximate
Mon 05:32:00 AM -12.7329 -52.6054 152° Southeast  Level FlightAware Approximate
Mon 05:33:00 AM -12.8504 -52.5419 152° Southeast  Level FlightAware Approximate
Mon 05:34:00 AM -12.9678 -52.4784 152° Southeast  Level FlightAware Approximate
Mon 05:35:00 AM -13.0852 -52.4148 152° Southeast  Level FlightAware Approximate
Mon 05:36:00 AM -13.2026 -52.3512 152° Southeast  Level FlightAware Approximate
Mon 05:37:00 AM -13.3200 -52.2875 152° Southeast  Level FlightAware Approximate
Mon 05:38:00 AM -13.4373 -52.2237 152° Southeast  Level FlightAware Approximate
Mon 05:39:00 AM -13.5547 -52.1599 152° Southeast  Level FlightAware Approximate
Mon 05:40:00 AM -13.6720 -52.0960 152° Southeast  Level FlightAware Approximate
Mon 05:41:00 AM -13.7893 -52.0321 152° Southeast  Level FlightAware Approximate
Mon 05:42:00 AM -13.9066 -51.9681 152° Southeast  Level FlightAware Approximate
Mon 05:43:00 AM -14.0239 -51.9040 152° Southeast  Level FlightAware Approximate
Mon 05:44:00 AM -14.1412 -51.8399 152° Southeast  Level FlightAware Approximate
Mon 05:45:00 AM -14.2584 -51.7757 152° Southeast  Level FlightAware Approximate
Mon 05:46:00 AM -14.3756 -51.7114 152° Southeast  Level FlightAware Approximate
Mon 05:47:00 AM -14.4929 -51.6471 152° Southeast  Level FlightAware Approximate
Mon 05:48:00 AM -14.6100 -51.5826 152° Southeast  Level FlightAware Approximate
Mon 05:49:00 AM -14.7272 -51.5182 152° Southeast  Level FlightAware Approximate
Mon 05:50:00 AM -14.8444 -51.4536 152° Southeast  Level FlightAware Approximate
Mon 05:51:00 AM -14.9615 -51.3890 152° Southeast  Level FlightAware Approximate
Mon 05:52:00 AM -15.0786 -51.3243 152° Southeast  Level FlightAware Approximate
Mon 05:53:00 AM -15.1957 -51.2595 152° Southeast  Level FlightAware Approximate
Mon 05:54:00 AM -15.3128 -51.1947 152° Southeast  Level FlightAware Approximate
Mon 05:55:00 AM -15.4299 -51.1298 152° Southeast  Level FlightAware Approximate
Mon 05:56:00 AM -15.5469 -51.0648 152° Southeast  Level FlightAware Approximate
Mon 05:57:00 AM -15.6640 -50.9998 152° Southeast  Level FlightAware Approximate
Mon 05:58:00 AM -15.7810 -50.9347 152° Southeast  Level FlightAware Approximate
Mon 05:59:00 AM -15.8980 -50.8695 152° Southeast  Level FlightAware Approximate
Mon 06:00:00 AM -16.0149 -50.8042 152° Southeast  Level FlightAware Approximate
Mon 06:01:00 AM -16.1319 -50.7388 152° Southeast  Level FlightAware Approximate
Mon 06:02:00 AM -16.2488 -50.6734 152° Southeast  Level FlightAware Approximate
Mon 06:03:00 AM -16.3657 -50.6079 152° Southeast  Level FlightAware Approximate
Mon 06:04:00 AM -16.4826 -50.5423 152° Southeast  Level FlightAware Approximate
Mon 06:05:00 AM -16.5995 -50.4767 152° Southeast  Level FlightAware Approximate
Mon 06:06:00 AM -16.7163 -50.4109 152° Southeast  Level FlightAware Approximate
Mon 06:07:00 AM -16.8332 -50.3451 152° Southeast  Level FlightAware Approximate
Mon 06:08:00 AM -16.9500 -50.2792 152° Southeast  Level FlightAware Approximate
Mon 06:09:00 AM -17.0668 -50.2132 152° Southeast  Level FlightAware Approximate
Mon 06:10:00 AM -17.1835 -50.1471 152° Southeast  Level FlightAware Approximate
Mon 06:11:00 AM -17.3003 -50.0810 152° Southeast  Level FlightAware Approximate
Mon 06:12:00 AM -17.4170 -50.0147 152° Southeast  Level FlightAware Approximate
Mon 06:13:00 AM -17.5337 -49.9484 152° Southeast  Level FlightAware Approximate
Mon 06:14:00 AM -17.6504 -49.8820 152° Southeast  Level FlightAware Approximate
Mon 06:15:00 AM -17.7670 -49.8155 152° Southeast  Level FlightAware Approximate
Mon 06:16:00 AM -17.8836 -49.7489 151° Southeast  Level FlightAware Approximate
Mon 06:17:00 AM -18.0003 -49.6823 151° Southeast  Level FlightAware Approximate
Mon 06:18:00 AM -18.1168 -49.6155 151° Southeast  Level FlightAware Approximate
Mon 06:18:36 AM -18.4830 -49.7740 151° Southeast 478 550 33,000  Level FlightAware ADS-B
Mon 06:19:00 AM -18.2334 -49.5487 151° Southeast  Level FlightAware Approximate
Mon 06:19:18 AM -18.5670 -49.7300 154° Southeast 478 550 33,000  Level FlightAware ADS-B
Mon 06:19:44 AM -18.6110 -49.7060 153° Southeast 478 550 33,000  Level FlightAware ADS-B
Mon 06:20:16 AM -18.6720 -49.6740 154° Southeast 477 549 33,000  Level FlightAware ADS-B
Mon 06:20:49 AM -18.7450 -49.6350 153° Southeast 478 550 33,000  Level FlightAware ADS-B
Mon 06:21:34 AM -18.8350 -49.5870 153° Southeast 478 550 33,000  Level FlightAware ADS-B
Mon 06:22:39 AM -18.9470 -49.5250 152° Southeast 478 550 33,000  Level FlightAware ADS-B
Mon 06:23:16 AM -19.0330 -49.4780 153° Southeast 475 547 33,000  Level FlightAware ADS-B
Mon 06:23:48 AM -19.0970 -49.4430 153° Southeast 475 547 33,000  Level FlightAware ADS-B
Mon 06:24:38 AM -19.1940 -49.3900 153° Southeast 476 548 33,000  Level FlightAware ADS-B
Mon 06:25:14 AM -19.2660 -49.3500 152° Southeast 476 548 33,000  Level FlightAware ADS-B
Mon 06:25:50 AM -19.3350 -49.3120 153° Southeast 476 548 33,000  Level FlightAware ADS-B
Mon 06:26:26 AM -19.4040 -49.2740 153° Southeast 476 548 33,000  Level FlightAware ADS-B
Mon 06:27:03 AM -19.4810 -49.2310 152° Southeast 476 548 33,000  Level FlightAware ADS-B
Mon 06:27:35 AM -19.5420 -49.1970 152° Southeast 476 548 33,000  Level FlightAware ADS-B
Mon 06:28:13 AM -19.6150 -49.1570 153° Southeast 475 547 33,000  Level FlightAware ADS-B
Mon 06:28:52 AM -19.6920 -49.1140 152° Southeast 475 547 33,000  Level FlightAware ADS-B
Mon 06:29:36 AM -19.7780 -49.0670 153° Southeast 476 548 33,000  Level FlightAware ADS-B
Mon 06:30:13 AM -19.8510 -49.0260 152° Southeast 475 547 33,000  Level FlightAware ADS-B
Mon 06:30:51 AM -19.9260 -48.9840 152° Southeast 475 547 33,000  Level FlightAware ADS-B
Mon 06:31:19 AM -19.9780 -48.9550 152° Southeast 475 547 33,000  Level FlightAware ADS-B
Mon 06:31:53 AM -20.0470 -48.9170 153° Southeast 475 547 33,000  Level FlightAware ADS-B
Mon 06:32:37 AM -20.1330 -48.8690 152° Southeast 476 548 33,000  Level FlightAware ADS-B
Mon 06:33:17 AM -20.2120 -48.8250 152° Southeast 476 548 33,000  Level FlightAware ADS-B
Mon 06:33:50 AM -20.2730 -48.7910 152° Southeast 477 549 33,000  Level FlightAware ADS-B
Mon 06:34:29 AM -20.3500 -48.7470 152° Southeast 475 547 33,000  Level FlightAware ADS-B
Mon 06:35:07 AM -20.4250 -48.7080 154° Southeast 475 547 33,000  Level FlightAware ADS-B
Mon 06:35:43 AM -20.4910 -48.6590 145° Southeast 480 552 33,000  Level FlightAware ADS-B
Mon 06:36:19 AM -20.5440 -48.5940 131° Southeast 483 556 33,000  Level FlightAware ADS-B
Mon 06:37:02 AM -20.6040 -48.5150 129° Southeast 483 556 33,000  Level FlightAware ADS-B
Mon 06:37:39 AM -20.6580 -48.4470 130° Southeast 484 557 33,000  Level FlightAware ADS-B
Mon 06:38:15 AM -20.7110 -48.3810 131° Southeast 485 558 33,000  Level FlightAware ADS-B
Mon 06:39:03 AM -20.7840 -48.2960 133° Southeast 484 557 33,000  Level FlightAware ADS-B
Mon 06:39:38 AM -20.8440 -48.2450 142° Southeast 482 555 33,000  Level FlightAware ADS-B
Mon 06:40:15 AM -20.9100 -48.1900 142° Southeast 482 555 33,000  Level FlightAware ADS-B
Mon 06:40:47 AM -20.9650 -48.1440 142° Southeast 482 555 33,000  Level FlightAware ADS-B
Mon 06:41:25 AM -21.0350 -48.0880 143° Southeast 481 554 33,000  Level FlightAware ADS-B
Mon 06:42:09 AM -21.1140 -48.0280 145° Southeast 483 556 33,000  Level FlightAware ADS-B
Mon 06:42:47 AM -21.1840 -47.9750 145° Southeast 484 557 33,000  Level FlightAware ADS-B
Mon 06:43:21 AM -21.2460 -47.9260 144° Southeast 484 557 33,000  Level FlightAware ADS-B
Mon 06:45:07 AM -21.4420 -47.7880 147° Southeast 483 556 33,000  Level FlightAware ADS-B
Mon 06:45:53 AM -21.5340 -47.7340 151° Southeast 483 556 33,000  Level FlightAware ADS-B
Mon 06:46:41 AM -21.6270 -47.6760 150° Southeast 483 556 33,000  Level FlightAware ADS-B
Mon 06:47:25 AM -21.7120 -47.6230 150° Southeast 483 556 33,000  Level FlightAware ADS-B
Mon 06:48:15 AM -21.8100 -47.5640 151° Southeast 484 557 33,000  Level FlightAware ADS-B
Mon 06:48:53 AM -21.8820 -47.5200 150° Southeast 469 540 33,000 -462 Level FlightAware ADS-B
Mon 06:49:33 AM -21.9570 -47.4750 151° Southeast 462 532 32,400 -1,553 Descending FlightAware ADS-B
Mon 06:50:18 AM -22.0410 -47.4240 151° Southeast 457 526 30,800 -2,100 Descending FlightAware ADS-B
Mon 06:50:53 AM -22.1060 -47.3850 151° Southeast 450 518 29,600 -2,118 Descending FlightAware ADS-B
Mon 06:51:43 AM -22.1940 -47.3310 150° Southeast 434 499 27,800 -2,294 Descending FlightAware ADS-B
Mon 06:52:35 AM -22.2830 -47.2770 151° Southeast 419 482 25,700 -2,386 Descending FlightAware ADS-B
Mon 06:53:11 AM -22.3440 -47.2400 151° Southeast 411 473 24,300 -2,250 Descending FlightAware ADS-B
Mon 06:53:47 AM -22.4040 -47.2030 150° Southeast 402 463 23,000 -1,941 Descending FlightAware ADS-B
Mon 06:54:19 AM -22.4540 -47.1720 150° Southeast 396 456 22,100 -1,676 Descending FlightAware ADS-B
Mon 06:54:55 AM -22.5130 -47.1370 151° Southeast 390 449 21,100 -1,600 Descending FlightAware ADS-B
Mon 06:55:34 AM -22.5730 -47.1010 151° Southeast 389 448 20,100 -1,575 Descending FlightAware ADS-B
Mon 06:56:15 AM -22.6420 -47.0700 157° South 393 452 19,000 -1,724 Descending FlightAware ADS-B
Mon 06:57:01 AM -22.7210 -47.0370 159° South 392 451 17,600 -1,745 Descending FlightAware ADS-B
Mon 06:58:05 AM -22.8280 -46.9920 159° South 383 441 15,800 -1,737 Descending FlightAware ADS-B
Mon 06:58:55 AM -22.9100 -46.9580 159° South 380 437 14,300 -1,912 Descending FlightAware ADS-B
Mon 06:59:36 AM -22.9760 -46.9300 159° South 369 425 12,900 -2,060 Descending FlightAware ADS-B
Mon 07:00:02 AM -23.0170 -46.9130 159° South 360 414 12,000 -1,938 Descending FlightAware ADS-B
Mon 07:00:41 AM -23.0770 -46.8880 159° South 333 383 10,800 -1,600 Descending FlightAware ADS-B
Mon 07:01:17 AM -23.1250 -46.8670 158° South 294 338 10,000 -1,235 Descending FlightAware ADS-B
Mon 07:01:49 AM -23.1660 -46.8500 159° South 291 335 9,400 -1,120 Descending FlightAware ADS-B
Mon 07:02:32 AM -23.2200 -46.8270 159° South 292 336 8,600 -1,157 Descending FlightAware ADS-B
Mon 07:03:12 AM -23.2700 -46.8060 159° South 285 328 7,800 -740 Descending FlightAware ADS-B
Mon 07:03:45 AM -23.3080 -46.7900 159° South 258 297 7,700 -560 Descending FlightAware ADS-B
Mon 07:04:27 AM -23.3470 -46.7580 143° Southeast 241 277 7,100 -868 Descending FlightAware ADS-B
Mon 07:05:01 AM -23.3740 -46.7310 137° Southeast 234 269 6,600 -871 Descending FlightAware ADS-B
Mon 07:05:29 AM -23.3960 -46.7080 136° Southeast 226 260 6,200 -857 Descending FlightAware ADS-B
Mon 07:05:57 AM -23.4180 -46.6860 137° Southeast 224 258 5,800 -700 Descending FlightAware ADS-B
Mon 07:06:29 AM -23.4420 -46.6610 136° Southeast 222 255 5,500 -700 Descending FlightAware ADS-B
Mon 07:06:57 AM -23.4620 -46.6410 137° Southeast 213 245 5,100 -778 Descending FlightAware ADS-B
Mon 07:07:23 AM -23.4750 -46.6180 122° Southeast 196 226 4,800 -871 Descending FlightAware ADS-B
Mon 07:07:59 AM -23.4650 -46.5860 71° East 181 208 4,200 -971 Descending FlightAware ADS-B
Mon 07:08:31 AM -23.4580 -46.5580 75° East 174 200 3,700 -871 Descending FlightAware ADS-B
Mon 07:09:01 AM -23.4520 -46.5340 75° East 162 186 3,300 -789 Descending FlightAware ADS-B
Mon 07:09:47 AM -23.4420 -46.4980 73° East 161 185 2,700 -500 Descending FlightAware ADS-B
Mon 07:10:13 AM -23.4370 -46.4810 72° East 161 185 2,700  Level FlightAware ADS-B

Login

Don't have an account? Register now (free) for customized features, flight alerts, and more!